createdAt,value
2022-12-02T00:00:31.970Z,3.28
2022-12-02T00:01:32.019Z,3.28
2022-12-02T00:02:32.213Z,3.28
2022-12-02T00:03:32.388Z,3.28
2022-12-02T00:04:32.345Z,3.28
2022-12-02T00:05:32.598Z,3.27
2022-12-02T00:06:32.604Z,3.27
2022-12-02T00:07:32.844Z,3.29
2022-12-02T00:08:32.877Z,3.30
2022-12-02T00:09:32.983Z,3.31
2022-12-02T00:10:33.140Z,3.30
2022-12-02T00:11:33.247Z,3.29
2022-12-02T00:12:33.348Z,3.27
2022-12-02T00:13:33.443Z,3.27
2022-12-02T00:14:33.584Z,3.27
2022-12-02T00:15:33.773Z,3.27
2022-12-02T00:16:33.963Z,3.26
2022-12-02T00:17:33.963Z,3.26
2022-12-02T00:18:34.102Z,3.26
2022-12-02T00:19:34.291Z,3.27
2022-12-02T00:20:34.451Z,3.29
2022-12-02T00:21:34.514Z,3.30
2022-12-02T00:22:34.610Z,3.30
2022-12-02T00:23:34.719Z,3.30
2022-12-02T00:24:34.810Z,3.29
2022-12-02T00:25:35.000Z,3.27
2022-12-02T00:26:35.148Z,3.27
2022-12-02T00:27:35.255Z,3.26
2022-12-02T00:28:35.380Z,3.24
2022-12-02T00:29:35.489Z,3.23
2022-12-02T00:30:35.652Z,3.22
2022-12-02T00:31:35.812Z,3.20
2022-12-02T00:32:35.868Z,3.20
2022-12-02T00:33:36.008Z,3.21
2022-12-02T00:34:36.167Z,3.21
2022-12-02T00:35:36.276Z,3.22
2022-12-02T00:36:36.389Z,3.23
2022-12-02T00:37:36.536Z,3.24
2022-12-02T00:38:36.678Z,3.24
2022-12-02T00:39:36.806Z,3.23
2022-12-02T00:40:36.927Z,3.22
2022-12-02T00:41:37.015Z,3.21
2022-12-02T00:42:37.175Z,3.20
2022-12-02T00:43:37.275Z,3.19
2022-12-02T00:44:37.376Z,3.20
2022-12-02T00:45:37.591Z,3.20
2022-12-02T00:46:37.647Z,3.19
2022-12-02T00:47:37.794Z,3.19
2022-12-02T00:48:37.953Z,3.17
2022-12-02T00:49:38.064Z,3.15
2022-12-02T00:50:38.232Z,3.14
2022-12-02T00:51:38.411Z,3.13
2022-12-02T00:52:38.453Z,3.14
2022-12-02T00:53:38.542Z,3.14
2022-12-02T00:54:38.652Z,3.16
2022-12-02T00:55:38.814Z,3.18
2022-12-02T00:56:38.840Z,3.19
2022-12-02T00:57:38.981Z,3.18
2022-12-02T00:58:39.090Z,3.18
2022-12-02T00:59:39.234Z,3.18
2022-12-02T01:00:39.377Z,3.17
2022-12-02T01:01:39.522Z,3.16
2022-12-02T01:02:39.590Z,3.16
2022-12-02T01:03:45.471Z,3.17
2022-12-02T01:04:40.729Z,3.19
2022-12-02T01:05:39.899Z,3.20
2022-12-02T01:06:39.989Z,3.22
2022-12-02T01:07:40.231Z,3.23
2022-12-02T01:08:40.290Z,3.22
2022-12-02T01:09:40.381Z,3.22
2022-12-02T01:10:40.580Z,3.22
2022-12-02T01:11:40.669Z,3.21
2022-12-02T01:12:40.772Z,3.21
2022-12-02T01:13:40.926Z,3.20
2022-12-02T01:14:41.022Z,3.19
2022-12-02T01:15:41.164Z,3.18
2022-12-02T01:16:41.364Z,3.15
2022-12-02T01:17:41.349Z,3.12
2022-12-02T01:18:41.604Z,3.09
2022-12-02T01:19:41.655Z,3.07
2022-12-02T01:20:41.827Z,3.04
2022-12-02T01:21:41.842Z,3.03
2022-12-02T01:22:41.995Z,3.02
2022-12-02T01:23:42.157Z,3.03
2022-12-02T01:24:42.340Z,3.04
2022-12-02T01:25:43.375Z,3.05
2022-12-02T01:26:42.498Z,3.04
2022-12-02T01:27:42.687Z,3.02
2022-12-02T01:28:42.767Z,3.03
2022-12-02T01:29:42.943Z,3.02
2022-12-02T01:30:43.141Z,3.01
2022-12-02T01:31:43.360Z,3.00
2022-12-02T01:32:43.327Z,3.00
2022-12-02T01:33:43.505Z,3.00
2022-12-02T01:34:43.503Z,3.00
2022-12-02T01:35:43.745Z,3.01
2022-12-02T01:36:43.794Z,2.99
2022-12-02T01:37:43.968Z,2.98
2022-12-02T01:38:44.059Z,2.97
2022-12-02T01:39:44.339Z,2.96
2022-12-02T01:40:44.372Z,2.94
2022-12-02T01:41:44.412Z,2.94
2022-12-02T01:42:44.533Z,2.94
2022-12-02T01:43:44.669Z,2.94
2022-12-02T01:44:44.798Z,2.95
2022-12-02T01:45:44.968Z,2.94
2022-12-02T01:46:45.051Z,2.95
2022-12-02T01:47:45.181Z,2.95
2022-12-02T01:48:45.288Z,2.94
2022-12-02T01:49:45.425Z,2.93
2022-12-02T01:50:45.675Z,2.94
2022-12-02T01:51:45.716Z,2.95
2022-12-02T01:52:45.793Z,2.95
2022-12-02T01:53:46.042Z,2.95
2022-12-02T01:54:46.013Z,2.94
2022-12-02T01:55:46.166Z,2.93
2022-12-02T01:56:46.245Z,2.92
2022-12-02T01:57:46.335Z,2.90
2022-12-02T01:58:46.429Z,2.89
2022-12-02T01:59:46.589Z,2.87
2022-12-02T02:00:46.700Z,2.86
2022-12-02T02:01:46.875Z,2.86
2022-12-02T02:02:47.015Z,2.86
2022-12-02T02:03:47.074Z,2.86
2022-12-02T02:04:47.237Z,2.88
2022-12-02T02:05:47.322Z,2.88
2022-12-02T02:06:47.497Z,2.88
2022-12-02T02:07:47.595Z,2.88
2022-12-02T02:08:47.659Z,2.87
2022-12-02T02:09:47.809Z,2.86
2022-12-02T02:10:47.949Z,2.86
2022-12-02T02:11:48.090Z,2.86
2022-12-02T02:12:48.178Z,2.87
2022-12-02T02:13:48.318Z,2.86
2022-12-02T02:14:48.808Z,2.85
2022-12-02T02:15:48.589Z,2.84
2022-12-02T02:16:48.763Z,2.83
2022-12-02T02:17:48.810Z,2.83
2022-12-02T02:18:48.925Z,2.83
2022-12-02T02:19:49.107Z,2.82
2022-12-02T02:20:49.154Z,2.82
2022-12-02T02:21:49.326Z,2.82
2022-12-02T02:22:49.428Z,2.83
2022-12-02T02:23:49.584Z,2.83
2022-12-02T02:24:49.937Z,2.82
2022-12-02T02:25:49.854Z,2.81
2022-12-02T02:26:50.033Z,2.81
2022-12-02T02:27:50.118Z,2.80
2022-12-02T02:28:50.278Z,2.80
2022-12-02T02:29:50.368Z,2.79
2022-12-02T02:30:50.572Z,2.78
2022-12-02T02:31:50.683Z,2.77
2022-12-02T02:32:50.762Z,2.77
2022-12-02T02:33:50.879Z,2.76
2022-12-02T02:34:51.138Z,2.75
2022-12-02T02:35:51.065Z,2.75
2022-12-02T02:36:51.240Z,2.77
2022-12-02T02:37:51.385Z,2.77
2022-12-02T02:38:51.442Z,2.76
2022-12-02T02:39:51.635Z,2.76
2022-12-02T02:40:51.687Z,2.76
2022-12-02T02:41:51.860Z,2.75
2022-12-02T02:42:51.966Z,2.75
2022-12-02T02:43:52.060Z,2.75
2022-12-02T02:44:52.392Z,2.75
2022-12-02T02:45:52.348Z,2.75
2022-12-02T02:46:52.461Z,2.76
2022-12-02T02:47:52.559Z,2.76
2022-12-02T02:48:52.712Z,2.76
2022-12-02T02:49:52.837Z,2.77
2022-12-02T02:50:52.982Z,2.79
2022-12-02T02:51:53.170Z,2.80
2022-12-02T02:52:53.291Z,2.81
2022-12-02T02:53:53.276Z,2.82
2022-12-02T02:54:53.582Z,2.82
2022-12-02T02:55:53.664Z,2.82
2022-12-02T02:56:53.728Z,2.82
2022-12-02T02:57:53.829Z,2.83
2022-12-02T02:58:53.965Z,2.83
2022-12-02T02:59:54.153Z,2.82
2022-12-02T03:00:54.334Z,2.82
2022-12-02T03:01:54.567Z,2.82
2022-12-02T03:02:54.562Z,2.82
2022-12-02T03:03:54.624Z,2.82
2022-12-02T03:04:54.792Z,2.82
2022-12-02T03:05:54.884Z,2.81
2022-12-02T03:06:55.064Z,2.80
2022-12-02T03:07:55.214Z,2.78
2022-12-02T03:08:55.304Z,2.76
2022-12-02T03:09:55.410Z,2.74
2022-12-02T03:10:55.546Z,2.73
2022-12-02T03:11:55.711Z,2.74
2022-12-02T03:12:55.800Z,2.74
2022-12-02T03:13:55.900Z,2.75
2022-12-02T03:14:56.017Z,2.74
2022-12-02T03:15:56.100Z,2.73
2022-12-02T03:16:56.327Z,2.72
2022-12-02T03:17:56.369Z,2.71
2022-12-02T03:18:56.461Z,2.69
2022-12-02T03:19:56.623Z,2.67
2022-12-02T03:20:56.708Z,2.67
2022-12-02T03:21:56.896Z,2.68
2022-12-02T03:22:56.990Z,2.69
2022-12-02T03:23:57.090Z,2.69
2022-12-02T03:24:57.189Z,2.68
2022-12-02T03:25:57.300Z,2.67
2022-12-02T03:26:57.498Z,2.67
2022-12-02T03:27:57.611Z,2.67
2022-12-02T03:28:57.719Z,2.67
2022-12-02T03:29:57.877Z,2.68
2022-12-02T03:30:58.068Z,2.68
2022-12-02T03:31:58.098Z,2.69
2022-12-02T03:32:58.206Z,2.68
2022-12-02T03:33:58.306Z,2.68
2022-12-02T03:34:58.438Z,2.68
2022-12-02T03:35:58.588Z,2.68
2022-12-02T03:36:58.743Z,2.69
2022-12-02T03:37:58.845Z,2.68
2022-12-02T03:38:58.954Z,2.67
2022-12-02T03:39:59.105Z,2.65
2022-12-02T03:40:59.243Z,2.65
2022-12-02T03:41:59.443Z,2.65
2022-12-02T03:42:59.534Z,2.66
2022-12-02T03:43:59.675Z,2.67
2022-12-02T03:44:59.762Z,2.67
2022-12-02T03:45:59.940Z,2.65
2022-12-02T03:47:00.068Z,2.63
2022-12-02T03:48:00.152Z,2.61
2022-12-02T03:49:00.324Z,2.59
2022-12-02T03:50:00.434Z,2.59
2022-12-02T03:51:00.531Z,2.60
2022-12-02T03:52:00.720Z,2.61
2022-12-02T03:53:00.802Z,2.62
2022-12-02T03:54:00.940Z,2.61
2022-12-02T03:55:01.582Z,2.60
2022-12-02T03:56:01.211Z,2.59
2022-12-02T03:57:01.319Z,2.58
2022-12-02T03:58:01.511Z,2.58
2022-12-02T03:59:01.566Z,2.59
2022-12-02T04:00:01.700Z,2.60
2022-12-02T04:01:01.877Z,2.62
2022-12-02T04:02:02.005Z,2.61
2022-12-02T04:03:02.121Z,2.60
2022-12-02T04:04:02.177Z,2.59
2022-12-02T04:05:02.327Z,2.58
2022-12-02T04:06:02.468Z,2.57
2022-12-02T04:07:02.675Z,2.55
2022-12-02T04:08:02.769Z,2.54
2022-12-02T04:09:02.825Z,2.53
2022-12-02T04:10:02.965Z,2.53
2022-12-02T04:11:03.116Z,2.54
2022-12-02T04:12:03.245Z,2.54
2022-12-02T04:13:03.398Z,2.55
2022-12-02T04:14:03.485Z,2.54
2022-12-02T04:15:03.624Z,2.55
2022-12-02T04:16:03.837Z,2.55
2022-12-02T04:17:08.170Z,2.56
2022-12-02T04:18:04.155Z,2.57
2022-12-02T04:19:04.175Z,2.56
2022-12-02T04:20:04.312Z,2.54
2022-12-02T04:21:04.455Z,2.53
2022-12-02T04:22:04.624Z,2.53
2022-12-02T04:23:04.710Z,2.52
2022-12-02T04:24:04.863Z,2.51
2022-12-02T04:25:04.998Z,2.51
2022-12-02T04:26:05.125Z,2.51
2022-12-02T04:27:05.391Z,2.51
2022-12-02T04:28:05.375Z,2.51
2022-12-02T04:29:05.516Z,2.50
2022-12-02T04:30:05.648Z,2.48
2022-12-02T04:31:05.857Z,2.49
2022-12-02T04:32:05.950Z,2.50
2022-12-02T04:33:06.090Z,2.49
2022-12-02T04:34:06.230Z,2.49
2022-12-02T04:35:06.358Z,2.49
2022-12-02T04:36:06.499Z,2.48
2022-12-02T04:37:06.626Z,2.45
2022-12-02T04:38:11.768Z,2.43
2022-12-02T04:39:07.897Z,2.39
2022-12-02T04:40:07.086Z,2.36
2022-12-02T04:41:07.156Z,2.34
2022-12-02T04:42:07.279Z,2.34
2022-12-02T04:43:07.460Z,2.34
2022-12-02T04:44:07.528Z,2.34
2022-12-02T04:45:07.673Z,2.35
2022-12-02T04:46:07.839Z,2.37
2022-12-02T04:47:07.970Z,2.39
2022-12-02T04:48:08.103Z,2.41
2022-12-02T04:49:08.249Z,2.41
2022-12-02T04:50:08.395Z,2.40
2022-12-02T04:51:08.533Z,2.40
2022-12-02T04:52:08.673Z,2.41
2022-12-02T04:53:08.844Z,2.42
2022-12-02T04:54:08.926Z,2.42
2022-12-02T04:55:09.063Z,2.42
2022-12-02T04:56:09.202Z,2.41
2022-12-02T04:57:09.342Z,2.40
2022-12-02T04:58:09.680Z,2.38
2022-12-02T04:59:09.592Z,2.37
2022-12-02T05:00:09.719Z,2.36
2022-12-02T05:01:09.858Z,2.35
2022-12-02T05:02:09.989Z,2.35
2022-12-02T05:03:10.211Z,2.35
2022-12-02T05:04:10.449Z,2.35
2022-12-02T05:05:10.402Z,2.35
2022-12-02T05:06:10.539Z,2.32
2022-12-02T05:07:10.665Z,2.30
2022-12-02T05:08:10.865Z,2.31
2022-12-02T05:09:10.970Z,2.32
2022-12-02T05:10:11.057Z,2.33
2022-12-02T05:11:11.156Z,2.33
2022-12-02T05:12:11.307Z,2.34
2022-12-02T05:13:11.550Z,2.34
2022-12-02T05:14:11.538Z,2.35
2022-12-02T05:15:11.666Z,2.35
2022-12-02T05:16:11.936Z,2.34
2022-12-02T05:17:12.221Z,2.33
2022-12-02T05:18:12.135Z,2.33
2022-12-02T05:19:12.195Z,2.33
2022-12-02T05:20:12.314Z,2.33
2022-12-02T05:21:12.461Z,2.33
2022-12-02T05:22:12.606Z,2.31
2022-12-02T05:23:12.774Z,2.29
2022-12-02T05:24:12.857Z,2.29
2022-12-02T05:25:13.003Z,2.29
2022-12-02T05:26:13.062Z,2.30
2022-12-02T05:27:13.217Z,2.32
2022-12-02T05:28:13.492Z,2.34
2022-12-02T05:29:13.515Z,2.36
2022-12-02T05:30:13.562Z,2.37
2022-12-02T05:31:13.721Z,2.36
2022-12-02T05:32:13.896Z,2.35
2022-12-02T05:33:14.015Z,2.35
2022-12-02T05:34:14.093Z,2.35
2022-12-02T05:35:14.254Z,2.33
2022-12-02T05:36:14.395Z,2.32
2022-12-02T05:37:14.511Z,2.32
2022-12-02T05:38:14.733Z,2.31
2022-12-02T05:39:14.773Z,2.31
2022-12-02T05:40:14.956Z,2.32
2022-12-02T05:41:15.056Z,2.32
2022-12-02T05:42:15.163Z,2.33
2022-12-02T05:43:15.369Z,2.33
2022-12-02T05:44:15.380Z,2.33
2022-12-02T05:45:15.508Z,2.33
2022-12-02T05:46:15.677Z,2.34
2022-12-02T05:47:15.769Z,2.35
2022-12-02T05:48:15.924Z,2.36
2022-12-02T05:49:16.055Z,2.37
2022-12-02T05:50:16.137Z,2.38
2022-12-02T05:51:16.269Z,2.38
2022-12-02T05:52:16.453Z,2.37
2022-12-02T05:53:16.582Z,2.37
2022-12-02T05:54:16.786Z,2.38
2022-12-02T05:55:16.834Z,2.38
2022-12-02T05:56:16.944Z,2.38
2022-12-02T05:57:17.066Z,2.37
2022-12-02T05:58:17.214Z,2.37
2022-12-02T05:59:17.379Z,2.37
2022-12-02T06:00:17.521Z,2.36
2022-12-02T06:01:17.538Z,2.35
2022-12-02T06:02:17.791Z,2.34
2022-12-02T06:03:17.914Z,2.34
2022-12-02T06:04:18.091Z,2.35
2022-12-02T06:05:18.077Z,2.35
2022-12-02T06:06:18.182Z,2.37
2022-12-02T06:07:18.290Z,2.37
2022-12-02T06:08:18.403Z,2.33
2022-12-02T06:09:18.584Z,2.30
2022-12-02T06:10:18.651Z,2.28
2022-12-02T06:11:18.789Z,2.28
2022-12-02T06:12:18.941Z,2.29
2022-12-02T06:13:19.041Z,2.30
2022-12-02T06:14:19.292Z,2.30
2022-12-02T06:15:19.353Z,2.31
2022-12-02T06:16:19.403Z,2.32
2022-12-02T06:17:19.488Z,2.32
2022-12-02T06:18:19.662Z,2.32
2022-12-02T06:19:19.768Z,2.33
2022-12-02T06:20:19.884Z,2.33
2022-12-02T06:21:19.979Z,2.34
2022-12-02T06:22:20.088Z,2.35
2022-12-02T06:23:20.208Z,2.36
2022-12-02T06:24:20.370Z,2.37
2022-12-02T06:25:20.465Z,2.37
2022-12-02T06:26:20.567Z,2.36
2022-12-02T06:27:20.665Z,2.35
2022-12-02T06:28:20.793Z,2.32
2022-12-02T06:29:20.965Z,2.29
2022-12-02T06:30:21.085Z,2.26
2022-12-02T06:31:21.307Z,2.25
2022-12-02T06:32:21.334Z,2.24
2022-12-02T06:33:22.900Z,2.24
2022-12-02T06:34:21.615Z,2.24
2022-12-02T06:35:21.781Z,2.25
2022-12-02T06:36:21.838Z,2.26
2022-12-02T06:37:21.999Z,2.27
2022-12-02T06:38:22.125Z,2.29
2022-12-02T06:39:22.303Z,2.31
2022-12-02T06:40:29.844Z,2.33
2022-12-02T06:41:23.521Z,2.34
2022-12-02T06:42:22.604Z,2.34
2022-12-02T06:43:22.729Z,2.33
2022-12-02T06:44:22.832Z,2.33
2022-12-02T06:45:28.855Z,2.33
2022-12-02T06:46:24.137Z,2.33
2022-12-02T06:47:23.200Z,2.33
2022-12-02T06:48:23.299Z,2.33
2022-12-02T06:49:23.467Z,2.32
2022-12-02T06:50:23.581Z,2.32
2022-12-02T06:51:23.694Z,2.32
2022-12-02T06:52:23.775Z,2.31
2022-12-02T06:53:23.915Z,2.31
2022-12-02T06:54:24.106Z,2.32
2022-12-02T06:55:24.329Z,2.33
2022-12-02T06:56:24.332Z,2.33
2022-12-02T06:57:24.461Z,2.32
2022-12-02T06:58:24.561Z,2.29
2022-12-02T06:59:24.760Z,2.27
2022-12-02T07:00:24.846Z,2.27
2022-12-02T07:01:25.036Z,2.28
2022-12-02T07:02:25.071Z,2.30
2022-12-02T07:03:25.221Z,2.31
2022-12-02T07:04:25.307Z,2.31
2022-12-02T07:05:25.402Z,2.32
2022-12-02T07:06:25.547Z,2.32
2022-12-02T07:07:25.820Z,2.33
2022-12-02T07:08:25.794Z,2.34
2022-12-02T07:09:26.014Z,2.34
2022-12-02T07:10:26.062Z,2.35
2022-12-02T07:11:26.182Z,2.35
2022-12-02T07:12:26.396Z,2.34
2022-12-02T07:13:26.478Z,2.32
2022-12-02T07:14:26.653Z,2.30
2022-12-02T07:15:26.838Z,2.28
2022-12-02T07:16:26.831Z,2.27
2022-12-02T07:17:26.925Z,2.26
2022-12-02T07:18:27.074Z,2.26
2022-12-02T07:19:27.220Z,2.27
2022-12-02T07:20:27.357Z,2.28
2022-12-02T07:21:27.463Z,2.30
2022-12-02T07:22:27.569Z,2.31
2022-12-02T07:23:27.698Z,2.33
2022-12-02T07:24:27.880Z,2.33
2022-12-02T07:25:27.969Z,2.33
2022-12-02T07:26:28.104Z,2.33
2022-12-02T07:27:28.227Z,2.33
2022-12-02T07:28:28.371Z,2.32
2022-12-02T07:29:28.536Z,2.30
2022-12-02T07:30:28.713Z,2.29
2022-12-02T07:31:28.782Z,2.28
2022-12-02T07:32:28.895Z,2.27
2022-12-02T07:33:29.042Z,2.27
2022-12-02T07:34:34.040Z,2.27
2022-12-02T07:35:30.386Z,2.27
2022-12-02T07:36:29.416Z,2.27
2022-12-02T07:37:29.556Z,2.26
2022-12-02T07:38:57.505Z,2.26
2022-12-02T07:39:30.917Z,2.25
2022-12-02T07:40:29.952Z,2.25
2022-12-02T07:41:34.727Z,2.24
2022-12-02T07:42:31.236Z,2.24
2022-12-02T07:43:30.327Z,2.24
2022-12-02T07:44:30.485Z,2.25
2022-12-02T07:45:30.574Z,2.27
2022-12-02T07:46:30.803Z,2.28
2022-12-02T07:47:30.841Z,2.27
2022-12-02T07:48:30.982Z,2.26
2022-12-02T07:49:31.150Z,2.26
2022-12-02T07:50:31.250Z,2.27
2022-12-02T07:51:31.381Z,2.28
2022-12-02T07:52:31.597Z,2.29
2022-12-02T07:53:31.663Z,2.29
2022-12-02T07:54:31.840Z,2.28
2022-12-02T07:55:31.974Z,2.27
2022-12-02T07:56:32.058Z,2.26
2022-12-02T07:57:35.105Z,2.26
2022-12-02T07:59:02.903Z,2.26
2022-12-02T07:59:33.468Z,2.26
2022-12-02T08:00:32.539Z,2.27
2022-12-02T08:01:32.714Z,2.27
2022-12-02T08:02:32.797Z,2.27
2022-12-02T08:03:32.947Z,2.28
2022-12-02T08:04:33.214Z,2.28
2022-12-02T08:05:33.176Z,2.28
2022-12-02T08:06:39.055Z,2.28
2022-12-02T08:07:34.487Z,2.27
2022-12-02T08:08:33.595Z,2.24
2022-12-02T08:09:33.999Z,2.21
2022-12-02T08:10:33.827Z,2.20
2022-12-02T08:11:33.947Z,2.20
2022-12-02T08:12:34.066Z,2.20
2022-12-02T08:13:34.164Z,2.22
2022-12-02T08:14:34.376Z,2.25
2022-12-02T08:15:34.541Z,2.26
2022-12-02T08:16:34.662Z,2.27
2022-12-02T08:17:34.705Z,2.27
2022-12-02T08:18:34.797Z,2.25
2022-12-02T08:19:34.965Z,2.24
2022-12-02T08:20:35.042Z,2.24
2022-12-02T08:21:35.183Z,2.25
2022-12-02T08:22:35.313Z,2.26
2022-12-02T08:23:35.455Z,2.27
2022-12-02T08:24:35.620Z,2.29
2022-12-02T08:25:35.701Z,2.29
2022-12-02T08:26:35.851Z,2.28
2022-12-02T08:27:37.245Z,2.27
2022-12-02T08:28:36.114Z,2.27
2022-12-02T08:29:36.279Z,2.28
2022-12-02T08:30:36.444Z,2.29
2022-12-02T08:31:36.493Z,2.31
2022-12-02T08:32:36.633Z,2.32
2022-12-02T08:33:36.772Z,2.32
2022-12-02T08:34:36.938Z,2.30
2022-12-02T08:35:37.109Z,2.29
2022-12-02T08:36:37.157Z,2.30
2022-12-02T08:37:37.286Z,2.31
2022-12-02T08:38:37.418Z,2.32
2022-12-02T08:39:38.107Z,2.32
2022-12-02T08:40:37.730Z,2.33
2022-12-02T08:41:37.829Z,2.34
2022-12-02T08:42:37.974Z,2.34
2022-12-02T08:43:38.119Z,2.35
2022-12-02T08:44:38.288Z,2.36
2022-12-02T08:45:38.404Z,2.35
2022-12-02T08:46:38.572Z,2.33
2022-12-02T08:47:38.644Z,2.32
2022-12-02T08:48:38.784Z,2.33
2022-12-02T08:49:38.925Z,2.34
2022-12-02T08:50:39.073Z,2.36
2022-12-02T08:51:39.256Z,2.39
2022-12-02T08:52:39.349Z,2.41
2022-12-02T08:53:39.493Z,2.44
2022-12-02T08:54:39.623Z,2.45
2022-12-02T08:55:39.909Z,2.46
2022-12-02T08:56:39.986Z,2.46
2022-12-02T08:57:40.079Z,2.47
2022-12-02T08:58:40.142Z,2.47
2022-12-02T08:59:40.291Z,2.47
2022-12-02T09:00:40.504Z,2.48
2022-12-02T09:01:40.635Z,2.48
2022-12-02T09:02:40.771Z,2.48
2022-12-02T09:03:40.828Z,2.47
2022-12-02T09:04:41.058Z,2.47
2022-12-02T09:05:41.143Z,2.46
2022-12-02T09:06:41.228Z,2.46
2022-12-02T09:07:42.390Z,2.46
2022-12-02T09:08:41.512Z,2.47
2022-12-02T09:09:41.642Z,2.49
2022-12-02T09:10:41.922Z,2.51
2022-12-02T09:11:41.987Z,2.53
2022-12-02T09:12:42.053Z,2.54
2022-12-02T09:13:42.190Z,2.55
2022-12-02T09:14:42.347Z,2.55
2022-12-02T09:15:42.579Z,2.54
2022-12-02T09:16:42.611Z,2.54
2022-12-02T09:17:42.670Z,2.54
2022-12-02T09:18:42.795Z,2.54
2022-12-02T09:19:42.925Z,2.54
2022-12-02T09:20:43.092Z,2.52
2022-12-02T09:21:43.204Z,2.49
2022-12-02T09:22:43.336Z,2.48
2022-12-02T09:23:48.896Z,2.49
2022-12-02T09:24:44.670Z,2.50
2022-12-02T09:25:43.825Z,2.51
2022-12-02T09:26:43.856Z,2.51
2022-12-02T09:27:43.978Z,2.51
2022-12-02T09:28:44.117Z,2.50
2022-12-02T09:29:44.254Z,2.50
2022-12-02T09:30:44.494Z,2.51
2022-12-02T09:31:44.587Z,2.52
2022-12-02T09:32:44.662Z,2.50
2022-12-02T09:33:44.796Z,2.48
2022-12-02T09:34:44.903Z,2.48
2022-12-02T09:35:45.121Z,2.48
2022-12-02T09:36:45.234Z,2.47
2022-12-02T09:37:45.318Z,2.47
2022-12-02T09:38:45.585Z,2.49
2022-12-02T09:39:45.599Z,2.50
2022-12-02T09:40:45.751Z,2.50
2022-12-02T09:41:45.868Z,2.51
2022-12-02T09:42:46.039Z,2.52
2022-12-02T09:43:46.109Z,2.54
2022-12-02T09:44:46.252Z,2.55
2022-12-02T09:45:46.359Z,2.54
2022-12-02T09:46:46.568Z,2.52
2022-12-02T09:47:46.578Z,2.50
2022-12-02T09:48:46.728Z,2.49
2022-12-02T09:49:46.825Z,2.49
2022-12-02T09:50:46.978Z,2.49
2022-12-02T09:51:47.089Z,2.47
2022-12-02T09:52:47.247Z,2.44
2022-12-02T09:53:47.376Z,2.43
2022-12-02T09:54:47.507Z,2.43
2022-12-02T09:55:49.169Z,2.44
2022-12-02T09:56:47.752Z,2.43
2022-12-02T09:57:48.032Z,2.43
2022-12-02T09:58:48.014Z,2.42
2022-12-02T09:59:48.118Z,2.42
2022-12-02T10:00:48.286Z,2.43
2022-12-02T10:01:48.461Z,2.44
2022-12-02T10:02:48.542Z,2.45
2022-12-02T10:03:48.646Z,2.46
2022-12-02T10:04:49.001Z,2.48
2022-12-02T10:05:48.895Z,2.49
2022-12-02T10:06:49.012Z,2.50
2022-12-02T10:07:49.316Z,2.52
2022-12-02T10:08:49.299Z,2.54
2022-12-02T10:09:49.403Z,2.55
2022-12-02T10:10:49.582Z,2.55
2022-12-02T10:11:49.711Z,2.55
2022-12-02T10:12:49.816Z,2.54
2022-12-02T10:13:49.957Z,2.54
2022-12-02T10:14:50.406Z,2.55
2022-12-02T10:15:50.414Z,2.56
2022-12-02T10:16:50.357Z,2.58
2022-12-02T10:17:50.469Z,2.58
2022-12-02T10:18:50.598Z,2.56
2022-12-02T10:19:50.733Z,2.55
2022-12-02T10:20:50.891Z,2.53
2022-12-02T10:21:55.001Z,2.51
2022-12-02T10:22:51.136Z,2.48
2022-12-02T10:23:51.270Z,2.46
2022-12-02T10:24:51.753Z,2.44
2022-12-02T10:25:51.558Z,2.43
2022-12-02T10:26:51.664Z,2.43
2022-12-02T10:27:51.821Z,2.43
2022-12-02T10:28:51.909Z,2.42
2022-12-02T10:29:52.080Z,2.42
2022-12-02T10:30:52.205Z,2.42
2022-12-02T10:31:52.331Z,2.42
2022-12-02T10:32:52.427Z,2.43
2022-12-02T10:33:52.565Z,2.44
2022-12-02T10:34:53.135Z,2.45
2022-12-02T10:35:52.975Z,2.45
2022-12-02T10:36:52.938Z,2.43
2022-12-02T10:37:53.066Z,2.40
2022-12-02T10:38:53.205Z,2.37
2022-12-02T10:39:53.335Z,2.35
2022-12-02T10:40:53.533Z,2.34
2022-12-02T10:41:53.674Z,2.33
2022-12-02T10:42:53.764Z,2.34
2022-12-02T10:43:53.890Z,2.36
2022-12-02T10:44:54.062Z,2.37
2022-12-02T10:45:54.203Z,2.36
2022-12-02T10:46:54.353Z,2.35
2022-12-02T10:47:54.411Z,2.35
2022-12-02T10:48:54.562Z,2.35
2022-12-02T10:49:54.691Z,2.34
2022-12-02T10:50:54.900Z,2.35
2022-12-02T10:51:54.921Z,2.36
2022-12-02T10:52:55.065Z,2.38
2022-12-02T10:53:55.189Z,2.40
2022-12-02T10:54:55.596Z,2.43
2022-12-02T10:55:55.530Z,2.43
2022-12-02T10:56:55.558Z,2.43
2022-12-02T10:57:55.786Z,2.44
2022-12-02T10:58:55.806Z,2.46
2022-12-02T10:59:55.953Z,2.45
2022-12-02T11:00:56.146Z,2.43
2022-12-02T11:01:56.445Z,2.42
2022-12-02T11:02:56.339Z,2.41
2022-12-02T11:03:56.470Z,2.39
2022-12-02T11:04:56.606Z,2.36
2022-12-02T11:05:56.782Z,2.34
2022-12-02T11:06:56.873Z,2.32
2022-12-02T11:07:57.241Z,2.32
2022-12-02T11:09:17.351Z,2.31
2022-12-02T11:09:58.304Z,2.31
2022-12-02T11:10:57.463Z,2.32
2022-12-02T11:11:57.544Z,2.34
2022-12-02T11:12:57.687Z,2.37
2022-12-02T11:13:57.825Z,2.39
2022-12-02T11:14:57.963Z,2.39
2022-12-02T11:15:58.171Z,2.38
2022-12-02T11:16:58.242Z,2.38
2022-12-02T11:17:58.382Z,2.38
2022-12-02T11:18:58.511Z,2.40
2022-12-02T11:19:58.644Z,2.42
2022-12-02T11:20:58.791Z,2.43
2022-12-02T11:22:00.595Z,2.42
2022-12-02T11:22:59.041Z,2.42
2022-12-02T11:23:59.180Z,2.40
2022-12-02T11:24:59.320Z,2.39
2022-12-02T11:25:59.500Z,2.39
2022-12-02T11:26:59.601Z,2.40
2022-12-02T11:27:59.720Z,2.40
2022-12-02T11:28:59.858Z,2.40
2022-12-02T11:29:59.985Z,2.39
2022-12-02T11:31:00.149Z,2.39
2022-12-02T11:32:00.356Z,2.39
2022-12-02T11:33:00.389Z,2.39
2022-12-02T11:34:05.306Z,2.38
2022-12-02T11:35:16.870Z,2.38
2022-12-02T11:36:01.819Z,2.38
2022-12-02T11:37:00.886Z,2.38
2022-12-02T11:38:01.035Z,2.40
2022-12-02T11:39:01.165Z,2.41
2022-12-02T11:40:01.308Z,2.41
2022-12-02T11:41:01.422Z,2.40
2022-12-02T11:42:02.190Z,2.41
2022-12-02T11:43:01.776Z,2.42
2022-12-02T11:44:01.795Z,2.42
2022-12-02T11:45:01.936Z,2.41
2022-12-02T11:46:02.390Z,2.41
2022-12-02T11:47:02.242Z,2.40
2022-12-02T11:48:02.334Z,2.41
2022-12-02T11:49:02.464Z,2.41
2022-12-02T11:50:02.592Z,2.40
2022-12-02T11:51:13.479Z,2.41
2022-12-02T11:52:08.066Z,2.41
2022-12-02T11:53:04.029Z,2.40
2022-12-02T11:54:03.123Z,2.40
2022-12-02T11:55:03.260Z,2.41
2022-12-02T11:56:03.391Z,2.42
2022-12-02T11:57:03.559Z,2.42
2022-12-02T11:58:03.649Z,2.41
2022-12-02T11:59:03.769Z,2.40
2022-12-02T12:00:03.912Z,2.40
2022-12-02T12:01:04.063Z,2.40
2022-12-02T12:02:04.382Z,2.41
2022-12-02T12:03:04.391Z,2.41
2022-12-02T12:04:04.450Z,2.40
2022-12-02T12:05:04.633Z,2.40
2022-12-02T12:06:04.705Z,2.40
2022-12-02T12:07:04.928Z,2.42
2022-12-02T12:08:05.031Z,2.44
2022-12-02T12:09:05.116Z,2.44
2022-12-02T12:10:05.246Z,2.44
2022-12-02T12:11:05.399Z,2.45
2022-12-02T12:12:05.574Z,2.45
2022-12-02T12:13:05.657Z,2.44
2022-12-02T12:14:05.790Z,2.43
2022-12-02T12:15:05.925Z,2.44
2022-12-02T12:16:06.071Z,2.45
2022-12-02T12:17:06.327Z,2.46
2022-12-02T12:18:06.390Z,2.48
2022-12-02T12:19:06.494Z,2.49
2022-12-02T12:20:06.585Z,2.50
2022-12-02T12:21:06.724Z,2.52
2022-12-02T12:22:06.936Z,2.53
2022-12-02T12:23:06.983Z,2.53
2022-12-02T12:24:07.113Z,2.53
2022-12-02T12:25:07.256Z,2.53
2022-12-02T12:26:07.403Z,2.52
2022-12-02T12:27:07.612Z,2.50
2022-12-02T12:28:07.652Z,2.50
2022-12-02T12:29:07.780Z,2.50
2022-12-02T12:30:07.899Z,2.51
2022-12-02T12:31:08.303Z,2.51
2022-12-02T12:32:08.203Z,2.52
2022-12-02T12:33:08.310Z,2.51
2022-12-02T12:34:08.421Z,2.50
2022-12-02T12:35:08.548Z,2.47
2022-12-02T12:36:08.679Z,2.46
2022-12-02T12:37:08.818Z,2.45
2022-12-02T12:38:09.068Z,2.46
2022-12-02T12:39:09.110Z,2.47
2022-12-02T12:40:09.248Z,2.47
2022-12-02T12:41:09.399Z,2.48
2022-12-02T12:42:10.561Z,2.48
2022-12-02T12:43:09.690Z,2.49
2022-12-02T12:44:09.832Z,2.49
2022-12-02T12:45:09.970Z,2.50
2022-12-02T12:46:10.109Z,2.51
2022-12-02T12:47:10.229Z,2.53
2022-12-02T12:48:10.333Z,2.54
2022-12-02T12:49:10.540Z,2.52
2022-12-02T12:50:10.739Z,2.50
2022-12-02T12:51:10.752Z,2.50
2022-12-02T12:52:10.894Z,2.51
2022-12-02T12:53:11.002Z,2.52
2022-12-02T12:54:11.106Z,2.54
2022-12-02T12:55:11.213Z,2.54
2022-12-02T12:56:11.346Z,2.52
2022-12-02T12:57:11.541Z,2.50
2022-12-02T12:58:11.629Z,2.49
2022-12-02T12:59:11.771Z,2.47
2022-12-02T13:00:11.862Z,2.46
2022-12-02T13:01:12.045Z,2.44
2022-12-02T13:02:12.394Z,2.43
2022-12-02T13:03:12.357Z,2.43
2022-12-02T13:04:12.411Z,2.44
2022-12-02T13:05:12.529Z,2.43
2022-12-02T13:06:12.639Z,2.42
2022-12-02T13:07:12.797Z,2.40
2022-12-02T13:08:12.959Z,2.39
2022-12-02T13:09:13.031Z,2.40
2022-12-02T13:10:13.147Z,2.43
2022-12-02T13:11:13.295Z,2.44
2022-12-02T13:12:13.530Z,2.46
2022-12-02T13:13:13.580Z,2.48
2022-12-02T13:14:13.701Z,2.48
2022-12-02T13:15:13.825Z,2.48
2022-12-02T13:16:14.012Z,2.47
2022-12-02T13:17:14.268Z,2.45
2022-12-02T13:18:14.260Z,2.42
2022-12-02T13:19:14.333Z,2.41
2022-12-02T13:20:14.474Z,2.41